Time;durP1;ratioP1;P1;durP2;ratioP2;P2;SDS_P1;SDS_P2;PMS_P1;PMS_P2;Temp;Humidity;BMP_temperature;BMP_pressure;BME280_temperature;BME280_humidity;BME280_pressure;Samples;Min_cycle;Max_cycle;Signal;HPM_P1;HPM_P2
2021/09/13 00:00:31;;;;;;;12.00;1.80;;;;;;;;;;5073052;28;20111;-55
2021/09/13 00:02:58;;;;;;;11.85;2.15;;;;;;;;;;5073346;28;20032;-56
2021/09/13 00:05:25;;;;;;;9.65;1.55;;;;;;;;;;5072983;28;20472;-55
2021/09/13 00:07:52;;;;;;;8.57;1.40;;;;;;;;;;5073167;28;20025;-57
2021/09/13 00:10:19;;;;;;;7.28;1.20;;;;;;;;;;5073097;28;20100;-57
2021/09/13 00:12:46;;;;;;;7.18;1.55;;;;;;;;;;5073078;28;20480;-57
2021/09/13 00:15:13;;;;;;;8.85;1.55;;;;;;;;;;5072868;28;20032;-56
2021/09/13 00:17:40;;;;;;;5.03;1.08;;;;;;;;;;5069014;28;20458;-56
2021/09/13 00:20:08;;;;;;;12.90;2.10;;;;;;;;;;5072795;28;20574;-56
2021/09/13 00:22:35;;;;;;;11.43;1.50;;;;;;;;;;5072603;28;20020;-56
2021/09/13 00:25:02;;;;;;;11.80;1.60;;;;;;;;;;5072903;28;20505;-56
2021/09/13 00:27:29;;;;;;;6.97;1.50;;;;;;;;;;5072413;28;20042;-57
2021/09/13 00:29:56;;;;;;;11.98;1.88;;;;;;;;;;5072292;28;20025;-57
2021/09/13 00:32:23;;;;;;;11.15;1.35;;;;;;;;;;5072904;28;20043;-52
2021/09/13 00:34:51;;;;;;;6.57;1.75;;;;;;;;;;5072476;28;20028;-56
2021/09/13 00:37:18;;;;;;;5.68;1.40;;;;;;;;;;5072607;28;20377;-54
2021/09/13 00:39:45;;;;;;;7.60;1.58;;;;;;;;;;5072478;28;20025;-56
2021/09/13 00:42:12;;;;;;;11.90;1.67;;;;;;;;;;5072378;28;20020;-55
2021/09/13 00:44:39;;;;;;;5.60;1.20;;;;;;;;;;5071980;28;20040;-56
2021/09/13 00:47:06;;;;;;;7.28;1.10;;;;;;;;;;5072413;28;20025;-56
2021/09/13 00:49:34;;;;;;;4.22;1.10;;;;;;;;;;5072156;28;20029;-56
2021/09/13 00:52:01;;;;;;;8.93;1.30;;;;;;;;;;5072129;28;20465;-55
2021/09/13 00:54:28;;;;;;;6.05;1.50;;;;;;;;;;5071710;28;20037;-54
2021/09/13 00:56:55;;;;;;;13.82;1.80;;;;;;;;;;5082132;28;20479;-48
2021/09/13 00:59:22;;;;;;;14.57;1.85;;;;;;;;;;5088670;28;20115;-39
2021/09/13 01:01:49;;;;;;;11.77;1.80;;;;;;;;;;5090622;28;20032;-56
2021/09/13 01:04:16;;;;;;;11.27;1.60;;;;;;;;;;5081483;28;20035;-55
2021/09/13 01:06:44;;;;;;;10.23;1.30;;;;;;;;;;5082951;28;20038;-48
2021/09/13 01:09:11;;;;;;;12.93;1.77;;;;;;;;;;5083984;28;20055;-57
2021/09/13 01:11:38;;;;;;;12.20;1.30;;;;;;;;;;5085487;28;20023;-56
2021/09/13 01:14:05;;;;;;;13.90;1.52;;;;;;;;;;5088926;28;20028;-50
2021/09/13 01:16:32;;;;;;;14.20;2.25;;;;;;;;;;5086505;28;20032;-53
2021/09/13 01:19:00;;;;;;;11.80;1.73;;;;;;;;;;5085079;28;20020;-57
2021/09/13 01:21:32;;;;;;;14.90;1.95;;;;;;;;;;5087703;28;20016;-55
2021/09/13 01:23:59;;;;;;;13.63;2.42;;;;;;;;;;5084352;28;20392;-57
2021/09/13 01:26:26;;;;;;;15.52;2.58;;;;;;;;;;5084852;28;20028;-43
2021/09/13 01:28:53;;;;;;;16.42;3.17;;;;;;;;;;5084424;28;20040;-49
2021/09/13 01:31:20;;;;;;;19.70;3.25;;;;;;;;;;5078471;28;20019;-58
2021/09/13 01:33:48;;;;;;;13.48;2.17;;;;;;;;;;5082534;28;20035;-52
2021/09/13 01:36:15;;;;;;;11.55;2.22;;;;;;;;;;5081304;28;20074;-49
2021/09/13 01:38:42;;;;;;;16.60;2.50;;;;;;;;;;5084689;28;20472;-57
2021/09/13 01:41:09;;;;;;;20.58;2.72;;;;;;;;;;5083767;28;20498;-55
2021/09/13 01:43:36;;;;;;;20.42;3.40;;;;;;;;;;5084552;28;20028;-52
2021/09/13 01:46:04;;;;;;;15.18;3.17;;;;;;;;;;5077844;28;20029;-54
2021/09/13 01:48:31;;;;;;;18.20;2.55;;;;;;;;;;5083105;28;20106;-53
2021/09/13 01:50:58;;;;;;;18.92;2.60;;;;;;;;;;5082605;28;20027;-49
2021/09/13 01:53:25;;;;;;;20.38;2.88;;;;;;;;;;5079546;28;20502;-56
2021/09/13 01:55:53;;;;;;;27.65;2.85;;;;;;;;;;5086408;28;20028;-54
2021/09/13 01:58:20;;;;;;;8.90;2.38;;;;;;;;;;5086037;28;20016;-50
2021/09/13 02:00:47;;;;;;;14.90;2.78;;;;;;;;;;5093773;28;20471;-49
2021/09/13 02:03:14;;;;;;;13.57;3.38;;;;;;;;;;5090190;28;20122;-53
2021/09/13 02:05:41;;;;;;;15.40;3.00;;;;;;;;;;5092483;28;20046;-55
2021/09/13 02:08:08;;;;;;;11.60;2.45;;;;;;;;;;5088764;28;20020;-53
2021/09/13 02:10:35;;;;;;;19.33;2.78;;;;;;;;;;5091217;28;20122;-54
2021/09/13 02:13:02;;;;;;;15.75;2.30;;;;;;;;;;5089199;28;20162;-48
2021/09/13 02:15:29;;;;;;;17.95;3.03;;;;;;;;;;5083826;28;20031;-54
2021/09/13 02:17:56;;;;;;;16.35;2.60;;;;;;;;;;5085592;28;20058;-52
2021/09/13 02:20:23;;;;;;;13.52;2.92;;;;;;;;;;5089382;28;20019;-43
2021/09/13 02:22:50;;;;;;;19.98;3.22;;;;;;;;;;5067967;28;20089;-56
2021/09/13 02:25:18;;;;;;;14.93;2.78;;;;;;;;;;5084024;28;20023;-51
2021/09/13 02:27:44;;;;;;;16.02;2.40;;;;;;;;;;5083796;28;20043;-56
2021/09/13 02:30:12;;;;;;;13.15;2.28;;;;;;;;;;5091780;28;20035;-56
2021/09/13 02:32:39;;;;;;;11.35;2.47;;;;;;;;;;5088454;28;20023;-57
2021/09/13 02:35:07;;;;;;;16.10;2.88;;;;;;;;;;5088819;28;20047;-48
2021/09/13 02:37:35;;;;;;;16.55;2.97;;;;;;;;;;5083277;28;20032;-54
2021/09/13 02:40:02;;;;;;;11.25;2.38;;;;;;;;;;5087238;28;20025;-53
2021/09/13 02:42:29;;;;;;;15.70;2.70;;;;;;;;;;5091997;28;20052;-47
2021/09/13 02:44:56;;;;;;;13.05;2.42;;;;;;;;;;5085832;28;20039;-55
2021/09/13 02:47:23;;;;;;;10.52;2.00;;;;;;;;;;5088938;28;20024;-55
2021/09/13 02:49:50;;;;;;;16.27;2.55;;;;;;;;;;5079612;28;20534;-54
2021/09/13 02:52:17;;;;;;;14.73;2.45;;;;;;;;;;5086525;28;20028;-54
2021/09/13 02:54:44;;;;;;;10.35;2.25;;;;;;;;;;5074990;28;20028;-57
2021/09/13 02:57:11;;;;;;;7.65;2.17;;;;;;;;;;5085217;28;20468;-54
2021/09/13 02:59:38;;;;;;;16.92;2.63;;;;;;;;;;5073316;28;20431;-58
2021/09/13 03:02:06;;;;;;;12.20;2.03;;;;;;;;;;5073577;28;20016;-58
2021/09/13 03:04:33;;;;;;;10.85;2.45;;;;;;;;;;5073955;28;20063;-58
2021/09/13 03:07:00;;;;;;;11.60;2.33;;;;;;;;;;5073106;28;20021;-59
2021/09/13 03:09:27;;;;;;;11.18;1.80;;;;;;;;;;5073470;28;20404;-58
2021/09/13 03:11:54;;;;;;;11.43;1.90;;;;;;;;;;5074299;28;20052;-56
2021/09/13 03:14:21;;;;;;;8.93;2.08;;;;;;;;;;5077774;28;20035;-58
2021/09/13 03:16:51;;;;;;;8.90;2.25;;;;;;;;;;5083708;28;20113;-58
2021/09/13 03:19:18;;;;;;;10.90;2.42;;;;;;;;;;5087859;28;20384;-58
2021/09/13 03:21:46;;;;;;;5.82;1.80;;;;;;;;;;5082730;28;20020;-58
2021/09/13 03:24:13;;;;;;;11.15;2.28;;;;;;;;;;5091822;28;20446;-58
2021/09/13 03:26:40;;;;;;;12.93;2.05;;;;;;;;;;5073793;28;20021;-58
2021/09/13 03:29:07;;;;;;;6.60;1.50;;;;;;;;;;5073378;28;20044;-56
2021/09/13 03:31:34;;;;;;;12.75;1.88;;;;;;;;;;5073412;28;20092;-58
2021/09/13 03:34:02;;;;;;;7.13;1.63;;;;;;;;;;5073761;28;20575;-59
2021/09/13 03:36:29;;;;;;;9.95;1.80;;;;;;;;;;5073649;28;20028;-58
2021/09/13 03:38:56;;;;;;;10.73;2.10;;;;;;;;;;5073602;28;20016;-56
2021/09/13 03:41:23;;;;;;;8.30;2.05;;;;;;;;;;5073342;28;20116;-50
2021/09/13 03:43:50;;;;;;;7.15;1.85;;;;;;;;;;5073639;28;20032;-58
2021/09/13 03:46:17;;;;;;;6.03;1.30;;;;;;;;;;5073576;28;20025;-57
2021/09/13 03:48:44;;;;;;;8.80;1.50;;;;;;;;;;5073266;28;20024;-57
2021/09/13 03:51:11;;;;;;;9.32;1.90;;;;;;;;;;5073373;28;20468;-52
2021/09/13 03:53:38;;;;;;;6.90;1.33;;;;;;;;;;5073008;28;20024;-57
2021/09/13 03:56:06;;;;;;;7.30;1.50;;;;;;;;;;5073074;28;20031;-58
2021/09/13 03:58:33;;;;;;;8.13;1.70;;;;;;;;;;5073093;28;20384;-56
2021/09/13 04:01:00;;;;;;;5.68;1.50;;;;;;;;;;5073116;28;20426;-57
2021/09/13 04:03:37;;;;;;;7.60;1.70;;;;;;;;;;5072677;28;20029;-58
2021/09/13 04:06:04;;;;;;;6.85;1.88;;;;;;;;;;5073058;28;20016;-57
2021/09/13 04:13:25;;;;;;;6.13;1.38;;;;;;;;;;5072935;28;20028;-58
2021/09/13 04:15:52;;;;;;;4.93;1.60;;;;;;;;;;5072683;28;20024;-57
2021/09/13 04:18:19;;;;;;;4.43;1.45;;;;;;;;;;5072550;28;20020;-58
2021/09/13 04:20:46;;;;;;;5.75;1.30;;;;;;;;;;5071823;28;20048;-58
2021/09/13 04:23:13;;;;;;;5.22;1.58;;;;;;;;;;5077876;28;20024;-52
2021/09/13 04:25:40;;;;;;;5.30;1.30;;;;;;;;;;5081367;28;20020;-57
2021/09/13 04:28:07;;;;;;;5.05;1.58;;;;;;;;;;5072198;28;20047;-55
2021/09/13 04:30:34;;;;;;;5.22;1.50;;;;;;;;;;5072738;28;20020;-57
2021/09/13 04:33:01;;;;;;;6.45;1.48;;;;;;;;;;5072411;28;20028;-59
2021/09/13 04:35:28;;;;;;;4.95;1.58;;;;;;;;;;5072404;28;20086;-57
2021/09/13 04:37:55;;;;;;;5.65;1.50;;;;;;;;;;5068572;28;20439;-53
2021/09/13 04:40:22;;;;;;;5.40;1.10;;;;;;;;;;5072363;28;20443;-56
2021/09/13 04:42:49;;;;;;;4.53;1.30;;;;;;;;;;5072324;28;20540;-58
2021/09/13 04:45:16;;;;;;;4.05;1.50;;;;;;;;;;5072292;28;20469;-57
2021/09/13 04:47:43;;;;;;;7.55;1.65;;;;;;;;;;5072282;28;20051;-56
2021/09/13 04:50:10;;;;;;;5.90;1.42;;;;;;;;;;5072066;28;20017;-57
2021/09/13 04:52:37;;;;;;;4.97;1.20;;;;;;;;;;5072314;28;20519;-57
2021/09/13 04:55:05;;;;;;;6.75;1.30;;;;;;;;;;5072038;28;20137;-57
2021/09/13 04:57:32;;;;;;;4.32;1.30;;;;;;;;;;5072161;28;20021;-57
2021/09/13 04:59:59;;;;;;;4.80;1.10;;;;;;;;;;5072312;28;20414;-56
2021/09/13 05:02:26;;;;;;;3.45;1.13;;;;;;;;;;5071969;28;20042;-57
2021/09/13 05:04:55;;;;;;;4.95;1.30;;;;;;;;;;5071768;28;20024;-56
2021/09/13 05:07:22;;;;;;;2.85;1.02;;;;;;;;;;5072010;28;20174;-59
2021/09/13 05:09:49;;;;;;;3.78;1.10;;;;;;;;;;5071994;28;20028;-58
2021/09/13 05:12:16;;;;;;;4.38;1.00;;;;;;;;;;5071737;28;20016;-54
2021/09/13 05:14:43;;;;;;;4.55;1.00;;;;;;;;;;5071973;28;20443;-58
2021/09/13 05:17:10;;;;;;;4.43;1.25;;;;;;;;;;5071840;28;20028;-52
2021/09/13 05:19:37;;;;;;;6.05;1.35;;;;;;;;;;5071850;28;20020;-55
2021/09/13 05:22:04;;;;;;;2.58;1.13;;;;;;;;;;5072175;28;20137;-55
2021/09/13 05:24:31;;;;;;;4.40;1.10;;;;;;;;;;5085671;28;20032;-58
2021/09/13 05:26:59;;;;;;;2.67;0.93;;;;;;;;;;5071304;28;20389;-46
2021/09/13 05:29:26;;;;;;;3.92;1.20;;;;;;;;;;5090298;28;20067;-51
2021/09/13 05:31:53;;;;;;;12.90;1.35;;;;;;;;;;5081908;28;20024;-58
2021/09/13 05:34:20;;;;;;;3.33;0.85;;;;;;;;;;5053561;28;20028;-49
2021/09/13 05:36:47;;;;;;;3.78;1.42;;;;;;;;;;5071825;28;20025;-57
2021/09/13 05:39:14;;;;;;;5.72;1.48;;;;;;;;;;5085796;28;20062;-57
2021/09/13 05:41:41;;;;;;;4.72;1.13;;;;;;;;;;5080879;28;20024;-58
2021/09/13 05:44:08;;;;;;;3.65;1.13;;;;;;;;;;5077346;28;20044;-55
2021/09/13 05:46:35;;;;;;;4.00;1.10;;;;;;;;;;5084626;28;20472;-58
2021/09/13 05:49:04;;;;;;;2.50;0.95;;;;;;;;;;5084974;28;20036;-58
2021/09/13 05:51:31;;;;;;;3.03;0.80;;;;;;;;;;5077518;28;20016;-46
2021/09/13 05:53:58;;;;;;;1.95;1.00;;;;;;;;;;5079839;28;20461;-54
2021/09/13 05:56:25;;;;;;;2.95;1.02;;;;;;;;;;5085452;28;20029;-58
2021/09/13 05:58:52;;;;;;;3.40;0.85;;;;;;;;;;5082024;28;20031;-57
2021/09/13 06:01:19;;;;;;;2.40;1.10;;;;;;;;;;5077355;28;20025;-58
2021/09/13 06:03:46;;;;;;;1.98;0.80;;;;;;;;;;5083195;28;20036;-50
2021/09/13 06:06:13;;;;;;;2.10;0.82;;;;;;;;;;5053311;28;20441;-51
2021/09/13 06:08:40;;;;;;;2.58;1.23;;;;;;;;;;5077942;28;20027;-55
2021/09/13 06:11:07;;;;;;;2.53;0.60;;;;;;;;;;5078879;28;20074;-55
2021/09/13 06:13:34;;;;;;;2.72;1.02;;;;;;;;;;5085431;28;20630;-56
2021/09/13 06:16:01;;;;;;;2.70;0.90;;;;;;;;;;5082509;28;20492;-55
2021/09/13 06:18:29;;;;;;;3.45;0.98;;;;;;;;;;5077118;28;20059;-55
2021/09/13 06:20:55;;;;;;;3.45;0.70;;;;;;;;;;5082116;28;20103;-55
2021/09/13 06:23:22;;;;;;;2.30;0.90;;;;;;;;;;5085365;28;20040;-55
2021/09/13 06:25:49;;;;;;;2.45;0.70;;;;;;;;;;5078924;28;20028;-57
2021/09/13 06:28:16;;;;;;;1.80;0.85;;;;;;;;;;5077199;28;20084;-57
2021/09/13 06:30:43;;;;;;;2.03;0.52;;;;;;;;;;5071350;28;20013;-58
2021/09/13 06:33:11;;;;;;;4.32;0.93;;;;;;;;;;5083459;28;20028;-51
2021/09/13 06:35:38;;;;;;;4.15;0.82;;;;;;;;;;5076768;28;20027;-57
2021/09/13 06:38:05;;;;;;;2.85;0.90;;;;;;;;;;5081865;28;20017;-57
2021/09/13 06:40:32;;;;;;;2.28;0.68;;;;;;;;;;5085132;28;20069;-57
2021/09/13 06:42:59;;;;;;;1.27;0.52;;;;;;;;;;5080527;28;20031;-58
2021/09/13 06:45:26;;;;;;;2.63;0.90;;;;;;;;;;5080606;28;20032;-54
2021/09/13 06:47:53;;;;;;;2.67;0.80;;;;;;;;;;5088306;28;20028;-58
2021/09/13 06:50:25;;;;;;;3.78;0.80;;;;;;;;;;5087326;28;20510;-55
2021/09/13 06:52:53;;;;;;;1.52;0.80;;;;;;;;;;5080513;28;20028;-55
2021/09/13 06:55:20;;;;;;;2.60;0.80;;;;;;;;;;5082769;28;20385;-57
2021/09/13 06:57:49;;;;;;;3.35;0.80;;;;;;;;;;5088530;28;20017;-53
2021/09/13 07:00:17;;;;;;;3.80;0.93;;;;;;;;;;5084628;28;20055;-53
2021/09/13 07:02:45;;;;;;;2.88;0.70;;;;;;;;;;5080059;28;20028;-55
2021/09/13 07:05:13;;;;;;;1.67;0.60;;;;;;;;;;5085606;28;20290;-55
2021/09/13 07:07:40;;;;;;;2.63;0.82;;;;;;;;;;5088343;28;20023;-51
2021/09/13 07:10:09;;;;;;;1.17;0.60;;;;;;;;;;5081731;28;20016;-56
2021/09/13 07:12:36;;;;;;;2.10;0.70;;;;;;;;;;5080610;28;20028;-54
2021/09/13 07:15:04;;;;;;;1.30;0.60;;;;;;;;;;5094031;28;20024;-57
2021/09/13 07:17:31;;;;;;;1.92;0.65;;;;;;;;;;5081882;28;20027;-58
2021/09/13 07:19:58;;;;;;;1.25;0.68;;;;;;;;;;5088341;28;20115;-58
2021/09/13 07:22:25;;;;;;;1.88;0.60;;;;;;;;;;5084725;28;20059;-58
2021/09/13 07:24:52;;;;;;;1.58;0.60;;;;;;;;;;5079828;28;20422;-59
2021/09/13 07:27:19;;;;;;;1.33;0.52;;;;;;;;;;5084952;28;20021;-58
2021/09/13 07:29:46;;;;;;;1.88;0.55;;;;;;;;;;5087824;28;20032;-59
2021/09/13 07:32:13;;;;;;;1.85;0.50;;;;;;;;;;5081388;28;20579;-58
2021/09/13 07:34:40;;;;;;;2.83;0.57;;;;;;;;;;5080381;28;20032;-58
2021/09/13 07:37:07;;;;;;;2.60;0.63;;;;;;;;;;5091525;28;20059;-58
2021/09/13 07:39:34;;;;;;;0.95;0.40;;;;;;;;;;5081779;28;20031;-58
2021/09/13 07:42:01;;;;;;;3.30;0.60;;;;;;;;;;5079507;28;20460;-57
2021/09/13 07:44:29;;;;;;;2.05;0.70;;;;;;;;;;5079636;28;20040;-59
2021/09/13 07:46:55;;;;;;;3.05;0.73;;;;;;;;;;5081400;28;20095;-57
2021/09/13 07:49:22;;;;;;;2.30;0.50;;;;;;;;;;5087536;28;20506;-57
2021/09/13 07:51:50;;;;;;;1.30;0.40;;;;;;;;;;5084468;28;20016;-53
2021/09/13 07:54:17;;;;;;;1.02;0.43;;;;;;;;;;5079218;28;20490;-57
2021/09/13 07:56:44;;;;;;;2.25;0.63;;;;;;;;;;5084424;28;20025;-57
2021/09/13 07:59:11;;;;;;;2.30;0.70;;;;;;;;;;5087408;28;20028;-58
2021/09/13 08:01:38;;;;;;;1.70;0.63;;;;;;;;;;5080983;28;20024;-59
2021/09/13 08:04:05;;;;;;;1.90;0.70;;;;;;;;;;5079250;28;20036;-55
2021/09/13 08:06:33;;;;;;;1.30;0.50;;;;;;;;;;5087116;28;20028;-58
2021/09/13 08:09:00;;;;;;;1.40;0.60;;;;;;;;;;5085488;28;20028;-59
2021/09/13 08:11:27;;;;;;;2.15;0.50;;;;;;;;;;5078835;28;20065;-58
2021/09/13 08:13:54;;;;;;;2.38;0.50;;;;;;;;;;5082513;28;20036;-56
2021/09/13 08:16:23;;;;;;;1.02;0.50;;;;;;;;;;5087150;28;20524;-56
2021/09/13 08:18:51;;;;;;;0.70;0.35;;;;;;;;;;5081934;28;20047;-54
2021/09/13 08:21:21;;;;;;;0.52;0.30;;;;;;;;;;5078687;28;20020;-59
2021/09/13 08:23:48;;;;;;;1.13;0.55;;;;;;;;;;5084863;28;20463;-58
2021/09/13 08:26:16;;;;;;;1.25;0.50;;;;;;;;;;5086876;28;20031;-54
2021/09/13 08:28:44;;;;;;;1.50;0.40;;;;;;;;;;5078918;28;20048;-56
2021/09/13 08:31:11;;;;;;;1.25;0.47;;;;;;;;;;5080142;28;20491;-56
2021/09/13 08:33:38;;;;;;;1.08;0.55;;;;;;;;;;5086820;28;20043;-57
2021/09/13 08:36:06;;;;;;;0.73;0.30;;;;;;;;;;5083638;28;20091;-55
2021/09/13 08:38:33;;;;;;;1.02;0.38;;;;;;;;;;5079217;28;20388;-58
2021/09/13 08:41:01;;;;;;;1.55;0.40;;;;;;;;;;5086735;28;20096;-57
2021/09/13 08:43:29;;;;;;;1.67;0.50;;;;;;;;;;5084357;28;20047;-58
2021/09/13 08:46:06;;;;;;;2.50;0.55;;;;;;;;;;5078123;28;20401;-53
2021/09/13 08:53:40;;;;;;;1.40;0.40;;;;;;;;;;5083868;28;20067;-52
2021/09/13 08:56:13;;;;;;;1.48;0.47;;;;;;;;;;5077967;28;20028;-58
2021/09/13 08:58:41;;;;;;;0.88;0.40;;;;;;;;;;5081112;28;20028;-58
2021/09/13 09:01:08;;;;;;;1.33;0.50;;;;;;;;;;5086389;28;20092;-58
2021/09/13 09:03:36;;;;;;;1.40;0.50;;;;;;;;;;5079620;28;20048;-55
2021/09/13 09:06:08;;;;;;;1.58;0.80;;;;;;;;;;5078209;28;20024;-57
2021/09/13 09:08:40;;;;;;;1.48;0.40;;;;;;;;;;5081062;28;20023;-58
2021/09/13 09:11:08;;;;;;;;;;;;;;;;;;5078511;28;20025;-58
2021/09/13 09:13:54;;;;;;;3.45;0.50;;;;;;;;;;5083864;28;19904;-58
2021/09/13 09:16:21;;;;;;;5.85;0.60;;;;;;;;;;5085987;28;20030;-59
2021/09/13 09:18:52;;;;;;;3.13;0.45;;;;;;;;;;5080722;28;20025;-57
2021/09/13 09:21:33;;;;;;;0.90;0.50;;;;;;;;;;5077930;28;20021;-59
2021/09/13 09:24:02;;;;;;;1.40;0.40;;;;;;;;;;5082417;28;20565;-58
2021/09/13 09:26:29;;;;;;;1.17;0.30;;;;;;;;;;5085837;28;20024;-56
2021/09/13 09:28:57;;;;;;;0.93;0.30;;;;;;;;;;5079917;28;20055;-58
2021/09/13 09:31:36;;;;;;;1.10;0.40;;;;;;;;;;5059335;28;20016;-57
2021/09/13 09:34:17;;;;;;;0.85;0.32;;;;;;;;;;5080196;28;20027;-51
2021/09/13 09:36:59;;;;;;;0.57;0.28;;;;;;;;;;5057166;28;20021;-51
2021/09/13 09:39:30;;;;;;;0.98;0.30;;;;;;;;;;5078515;28;20475;-53
2021/09/13 09:41:58;;;;;;;0.75;0.40;;;;;;;;;;5078067;28;20142;-58
2021/09/13 09:44:25;;;;;;;1.77;0.38;;;;;;;;;;5085592;28;20048;-51
2021/09/13 09:46:54;;;;;;;0.30;0.20;;;;;;;;;;5083945;28;20028;-54
2021/09/13 09:49:22;;;;;;;0.60;0.25;;;;;;;;;;5077465;28;20024;-58
2021/09/13 09:51:56;;;;;;;0.88;0.30;;;;;;;;;;5081091;28;20017;-58
2021/09/13 09:54:23;;;;;;;1.70;0.50;;;;;;;;;;5085750;28;20025;-58
2021/09/13 09:57:00;;;;;;;1.20;0.40;;;;;;;;;;5081346;28;20048;-58
2021/09/13 09:59:33;;;;;;;0.47;0.28;;;;;;;;;;5077424;28;20380;-59
2021/09/13 10:02:00;;;;;;;0.80;0.30;;;;;;;;;;5081055;28;20048;-57
2021/09/13 10:04:29;;;;;;;1.67;0.47;;;;;;;;;;5085585;28;20036;-49
2021/09/13 10:06:57;;;;;;;1.08;0.30;;;;;;;;;;5080592;28;20017;-58
2021/09/13 10:09:26;;;;;;;0.77;0.40;;;;;;;;;;5077029;28;20726;-57
2021/09/13 10:11:54;;;;;;;1.25;0.20;;;;;;;;;;5083878;28;20472;-50
2021/09/13 10:14:22;;;;;;;3.38;0.30;;;;;;;;;;5085520;28;20027;-55
2021/09/13 10:16:51;;;;;;;0.95;0.30;;;;;;;;;;5077983;28;20016;-42
2021/09/13 10:19:19;;;;;;;0.88;0.40;;;;;;;;;;5082220;28;20025;-58
2021/09/13 10:21:46;;;;;;;3.05;0.30;;;;;;;;;;5089385;28;20048;-57
2021/09/13 10:24:16;;;;;;;1.48;0.50;;;;;;;;;;5086432;28;20110;-57
2021/09/13 10:26:46;;;;;;;1.52;0.52;;;;;;;;;;5080809;28;20496;-57
2021/09/13 10:29:13;;;;;;;1.48;0.40;;;;;;;;;;5084531;28;20048;-58
2021/09/13 10:31:45;;;;;;;0.47;0.22;;;;;;;;;;5089130;28;20020;-59
2021/09/13 10:34:22;;;;;;;0.67;0.20;;;;;;;;;;5084419;28;20028;-51
2021/09/13 10:37:08;;;;;;;0.95;0.40;;;;;;;;;;5077534;28;20540;-58
2021/09/13 10:39:53;;;;;;;1.02;0.50;;;;;;;;;;5082874;28;20038;-57
2021/09/13 10:42:35;;;;;;;1.23;0.30;;;;;;;;;;5080614;28;20029;-55
2021/09/13 10:45:04;;;;;;;2.28;0.30;;;;;;;;;;5083778;28;20043;-55
2021/09/13 10:47:30;;;;;;;3.88;0.30;;;;;;;;;;5088886;28;20370;-55
2021/09/13 10:50:14;;;;;;;1.25;0.32;;;;;;;;;;5084112;28;20399;-58
2021/09/13 10:52:41;;;;;;;5.68;0.47;;;;;;;;;;5058648;28;20073;-58
2021/09/13 10:55:16;;;;;;;1.55;0.32;;;;;;;;;;5076860;28;20531;-57
2021/09/13 10:57:59;;;;;;;1.27;0.40;;;;;;;;;;5075210;28;20037;-57
2021/09/13 11:00:38;;;;;;;2.28;0.55;;;;;;;;;;5086383;28;20035;-56
2021/09/13 11:03:28;;;;;;;1.55;0.30;;;;;;;;;;5080441;28;20082;-58
2021/09/13 11:06:05;;;;;;;0.80;0.40;;;;;;;;;;5061388;28;20067;-54
2021/09/13 11:08:32;;;;;;;0.40;0.20;;;;;;;;;;5082178;28;20504;-45
2021/09/13 11:10:59;;;;;;;3.13;0.47;;;;;;;;;;5073164;28;20024;-43
2021/09/13 11:13:26;;;;;;;2.00;0.50;;;;;;;;;;5071860;28;20560;-44
2021/09/13 11:15:54;;;;;;;3.13;0.45;;;;;;;;;;5080626;28;20029;-43
2021/09/13 11:18:42;;;;;;;3.60;0.55;;;;;;;;;;5073441;28;20104;-44
2021/09/13 11:21:19;;;;;;;6.75;0.47;;;;;;;;;;5093031;28;20593;-44
2021/09/13 11:23:47;;;;;;;1.05;0.30;;;;;;;;;;5081880;28;20483;-50
2021/09/13 11:26:18;;;;;;;2.20;0.50;;;;;;;;;;5078481;28;20078;-53
2021/09/13 11:28:58;;;;;;;2.95;0.38;;;;;;;;;;5085724;28;20084;-47
2021/09/13 11:31:36;;;;;;;0.85;0.30;;;;;;;;;;5087474;28;20111;-46
2021/09/13 11:34:05;;;;;;;2.35;0.32;;;;;;;;;;5082653;28;20454;-48
2021/09/13 11:36:33;;;;;;;1.13;0.30;;;;;;;;;;5076597;28;20029;-58
2021/09/13 11:39:00;;;;;;;1.20;0.55;;;;;;;;;;5076531;28;20047;-52
2021/09/13 11:41:27;;;;;;;1.13;0.35;;;;;;;;;;5084144;28;20023;-45
2021/09/13 11:44:12;;;;;;;4.35;0.40;;;;;;;;;;5054858;28;20472;-47
2021/09/13 11:46:52;;;;;;;1.70;0.35;;;;;;;;;;5082288;28;20074;-44
2021/09/13 11:49:20;;;;;;;2.60;0.30;;;;;;;;;;5075406;28;20037;-46
2021/09/13 11:52:01;;;;;;;2.05;0.30;;;;;;;;;;5076719;28;20021;-43
2021/09/13 11:54:28;;;;;;;1.60;0.20;;;;;;;;;;5070303;28;20043;-45
2021/09/13 11:56:55;;;;;;;3.67;0.50;;;;;;;;;;5071391;28;20372;-43
2021/09/13 11:59:23;;;;;;;1.10;0.45;;;;;;;;;;5072311;28;20025;-44
2021/09/13 12:02:16;;;;;;;2.83;0.30;;;;;;;;;;5072700;28;20013;-44
2021/09/13 12:04:43;;;;;;;1.88;0.40;;;;;;;;;;5084184;28;20052;-43
2021/09/13 12:07:11;;;;;;;3.13;0.40;;;;;;;;;;5090880;28;20024;-41
2021/09/13 12:09:39;;;;;;;1.25;0.35;;;;;;;;;;5089114;28;20032;-43
2021/09/13 12:12:07;;;;;;;3.42;0.40;;;;;;;;;;5091757;28;20100;-43
2021/09/13 12:14:36;;;;;;;1.20;0.45;;;;;;;;;;5087556;28;20032;-42
2021/09/13 12:17:10;;;;;;;1.45;0.30;;;;;;;;;;5080276;28;20025;-47
2021/09/13 12:19:42;;;;;;;5.40;0.47;;;;;;;;;;5075103;28;20020;-43
2021/09/13 12:22:11;;;;;;;2.80;0.20;;;;;;;;;;5072577;28;20464;-41
2021/09/13 12:24:39;;;;;;;2.00;0.50;;;;;;;;;;5072107;28;20446;-42
2021/09/13 12:27:24;;;;;;;0.52;0.20;;;;;;;;;;5071782;28;20468;-43
2021/09/13 12:29:52;;;;;;;4.15;0.38;;;;;;;;;;5070928;28;20028;-43
2021/09/13 12:32:32;;;;;;;1.30;0.60;;;;;;;;;;5077404;28;20024;-46
2021/09/13 12:35:09;;;;;;;1.08;0.30;;;;;;;;;;5075795;28;20075;-49
2021/09/13 12:37:40;;;;;;;1.08;0.32;;;;;;;;;;5076767;28;20078;-49
2021/09/13 12:40:11;;;;;;;0.57;0.30;;;;;;;;;;5089844;28;20410;-44
2021/09/13 12:42:56;;;;;;;1.58;0.43;;;;;;;;;;5086608;28;20020;-48
2021/09/13 12:45:24;;;;;;;6.10;0.50;;;;;;;;;;5085849;28;20072;-44
2021/09/13 12:47:53;;;;;;;6.00;0.40;;;;;;;;;;5088357;28;20103;-43
2021/09/13 12:50:28;;;;;;;2.38;1.02;;;;;;;;;;5088319;28;20052;-46
2021/09/13 12:52:56;;;;;;;3.95;0.50;;;;;;;;;;5084011;28;20031;-45
2021/09/13 12:55:24;;;;;;;3.17;0.40;;;;;;;;;;5080406;28;20035;-42
2021/09/13 12:57:51;;;;;;;6.25;0.40;;;;;;;;;;5080814;28;20024;-46
2021/09/13 13:00:18;;;;;;;6.07;0.57;;;;;;;;;;5087106;28;20016;-47
2021/09/13 13:03:05;;;;;;;0.73;0.28;;;;;;;;;;5084051;28;20197;-49
2021/09/13 13:05:36;;;;;;;6.57;0.38;;;;;;;;;;5085949;28;20032;-43
2021/09/13 13:08:04;;;;;;;5.13;1.17;;;;;;;;;;5085791;28;20060;-43
2021/09/13 13:10:31;;;;;;;1.13;0.40;;;;;;;;;;5074395;28;20020;-43
2021/09/13 13:12:59;;;;;;;3.97;0.40;;;;;;;;;;5087391;28;20507;-45
2021/09/13 13:15:26;;;;;;;1.27;0.35;;;;;;;;;;5084769;28;20028;-43
2021/09/13 13:17:53;;;;;;;1.65;0.50;;;;;;;;;;5081106;28;20055;-46
2021/09/13 13:20:20;;;;;;;3.22;0.55;;;;;;;;;;5084193;28;20023;-44
2021/09/13 13:22:48;;;;;;;1.75;0.45;;;;;;;;;;5083320;28;20565;-44
2021/09/13 13:25:15;;;;;;;5.32;1.25;;;;;;;;;;5076427;28;20039;-44
2021/09/13 13:27:42;;;;;;;3.70;0.60;;;;;;;;;;5080530;28;20043;-44
2021/09/13 13:30:09;;;;;;;4.70;0.40;;;;;;;;;;5086096;28;20029;-44
2021/09/13 13:32:36;;;;;;;7.20;0.60;;;;;;;;;;5086093;28;20475;-44
2021/09/13 13:35:03;;;;;;;3.50;0.70;;;;;;;;;;5080256;28;20039;-44
2021/09/13 13:37:30;;;;;;;3.03;0.50;;;;;;;;;;5071647;28;20137;-45
2021/09/13 13:39:57;;;;;;;2.63;0.82;;;;;;;;;;5090302;28;20024;-48
2021/09/13 13:42:25;;;;;;;4.38;0.68;;;;;;;;;;5090104;28;20024;-46
2021/09/13 13:44:55;;;;;;;11.35;0.70;;;;;;;;;;5086457;28;20044;-47
2021/09/13 13:47:23;;;;;;;3.30;0.90;;;;;;;;;;5087633;28;20380;-46
2021/09/13 13:49:51;;;;;;;8.13;0.70;;;;;;;;;;5086331;28;20066;-42
2021/09/13 13:52:18;;;;;;;5.60;0.75;;;;;;;;;;5078583;28;20053;-56
2021/09/13 13:54:45;;;;;;;9.95;0.80;;;;;;;;;;5089605;28;20020;-53
2021/09/13 13:57:12;;;;;;;9.77;0.77;;;;;;;;;;5072360;28;20430;-47
2021/09/13 13:59:39;;;;;;;3.75;0.73;;;;;;;;;;5088760;28;20103;-54
2021/09/13 14:02:07;;;;;;;14.38;0.90;;;;;;;;;;5084772;28;20043;-47
2021/09/13 14:04:34;;;;;;;5.28;0.80;;;;;;;;;;5090934;28;20361;-45
2021/09/13 14:07:02;;;;;;;6.22;0.70;;;;;;;;;;5090124;28;20340;-46
2021/09/13 14:09:29;;;;;;;5.32;0.95;;;;;;;;;;5091458;28;20036;-44
2021/09/13 14:11:56;;;;;;;5.82;0.60;;;;;;;;;;5091702;28;20391;-45
2021/09/13 14:14:25;;;;;;;9.35;0.90;;;;;;;;;;5085396;28;20842;-47
2021/09/13 14:16:53;;;;;;;7.20;0.80;;;;;;;;;;5089576;28;20111;-48
2021/09/13 14:19:20;;;;;;;13.05;1.20;;;;;;;;;;5088925;28;20020;-55
2021/09/13 14:21:47;;;;;;;8.93;0.73;;;;;;;;;;5070583;28;20027;-47
2021/09/13 14:24:14;;;;;;;16.35;0.90;;;;;;;;;;5089782;28;20387;-45
2021/09/13 14:26:41;;;;;;;18.90;0.90;;;;;;;;;;5092051;28;20073;-49
2021/09/13 14:29:08;;;;;;;13.93;0.90;;;;;;;;;;5092247;28;20076;-46
2021/09/13 14:31:36;;;;;;;25.60;1.30;;;;;;;;;;5089090;28;20063;-45
2021/09/13 14:34:03;;;;;;;7.78;1.02;;;;;;;;;;5092448;28;20089;-47
2021/09/13 14:36:30;;;;;;;12.18;0.82;;;;;;;;;;5089977;28;20529;-44
2021/09/13 14:38:57;;;;;;;13.63;1.30;;;;;;;;;;5087854;28;20028;-57
2021/09/13 14:41:24;;;;;;;12.40;0.90;;;;;;;;;;5087127;28;20027;-51
2021/09/13 14:43:51;;;;;;;5.63;0.80;;;;;;;;;;5091500;28;20036;-48
2021/09/13 14:46:18;;;;;;;12.98;0.98;;;;;;;;;;5077970;28;20468;-43
2021/09/13 14:48:45;;;;;;;10.93;0.60;;;;;;;;;;5088359;28;20064;-47
2021/09/13 14:51:12;;;;;;;8.98;1.10;;;;;;;;;;5091790;28;20028;-43
2021/09/13 14:53:39;;;;;;;13.35;0.73;;;;;;;;;;5090533;28;20024;-46
2021/09/13 14:56:07;;;;;;;6.95;1.25;;;;;;;;;;5090214;28;20512;-46
2021/09/13 14:58:33;;;;;;;6.13;0.70;;;;;;;;;;5087762;28;20555;-47